sensor_id;sensor_type;location;lat;lon;timestamp;pressure;altitude;pressure_sealevel;temperature;humidity
8280;BME280;8335;42.646;23.380;2023-03-04T00:02:20;143227.69;;;6.59;100.00
8280;BME280;8335;42.646;23.380;2023-03-04T00:04:46;143226.47;;;6.59;100.00
8280;BME280;8335;42.646;23.380;2023-03-04T00:07:13;143224.00;;;6.58;100.00
8280;BME280;8335;42.646;23.380;2023-03-04T00:09:41;143225.22;;;6.58;100.00
8280;BME280;8335;42.646;23.380;2023-03-04T00:12:08;143231.41;;;6.61;100.00
8280;BME280;8335;42.646;23.380;2023-03-04T00:14:35;143231.41;;;6.61;100.00
8280;BME280;8335;42.646;23.380;2023-03-04T00:17:02;143219.00;;;6.56;100.00
8280;BME280;8335;42.646;23.380;2023-03-04T00:19:30;143215.28;;;6.54;100.00
8280;BME280;8335;42.646;23.380;2023-03-04T00:21:57;143219.00;;;6.56;100.00
8280;BME280;8335;42.646;23.380;2023-03-04T00:24:24;143224.00;;;6.58;100.00
8280;BME280;8335;42.646;23.380;2023-03-04T00:26:50;143225.22;;;6.58;100.00
8280;BME280;8335;42.646;23.380;2023-03-04T00:29:17;143230.16;;;6.60;100.00
8280;BME280;8335;42.646;23.380;2023-03-04T00:31:44;143221.47;;;6.57;100.00
8280;BME280;8335;42.646;23.380;2023-03-04T00:34:11;143215.28;;;6.54;100.00
8280;BME280;8335;42.646;23.380;2023-03-04T00:36:39;143212.81;;;6.53;100.00
8280;BME280;8335;42.646;23.380;2023-03-04T00:39:08;143216.53;;;6.55;100.00
8280;BME280;8335;42.646;23.380;2023-03-04T00:41:35;143211.59;;;6.53;100.00
8280;BME280;8335;42.646;23.380;2023-03-04T00:44:03;143215.28;;;6.54;100.00
8280;BME280;8335;42.646;23.380;2023-03-04T00:46:29;143209.13;;;6.52;100.00
8280;BME280;8335;42.646;23.380;2023-03-04T00:48:56;143189.31;;;6.44;100.00
8280;BME280;8335;42.646;23.380;2023-03-04T00:51:23;143199.19;;;6.48;100.00
8280;BME280;8335;42.646;23.380;2023-03-04T00:53:51;143190.53;;;6.44;100.00
8280;BME280;8335;42.646;23.380;2023-03-04T00:56:18;143195.47;;;6.46;100.00
8280;BME280;8335;42.646;23.380;2023-03-04T00:58:45;143188.06;;;6.43;100.00
8280;BME280;8335;42.646;23.380;2023-03-04T01:01:11;143195.47;;;6.46;100.00
8280;BME280;8335;42.646;23.380;2023-03-04T01:03:38;143193.00;;;6.45;100.00
8280;BME280;8335;42.646;23.380;2023-03-04T01:06:06;143185.53;;;6.42;100.00
8280;BME280;8335;42.646;23.380;2023-03-04T01:08:33;143176.91;;;6.39;100.00
8280;BME280;8335;42.646;23.380;2023-03-04T01:11:01;143168.22;;;6.35;100.00
8280;BME280;8335;42.646;23.380;2023-03-04T01:13:28;143176.91;;;6.39;100.00
8280;BME280;8335;42.646;23.380;2023-03-04T01:15:55;143180.59;;;6.40;100.00
8280;BME280;8335;42.646;23.380;2023-03-04T01:18:22;143149.63;;;6.27;100.00
8280;BME280;8335;42.646;23.380;2023-03-04T01:20:49;143185.53;;;6.42;100.00
8280;BME280;8335;42.646;23.380;2023-03-04T01:23:16;143200.41;;;6.48;100.00
8280;BME280;8335;42.646;23.380;2023-03-04T01:25:43;143199.19;;;6.48;100.00
8280;BME280;8335;42.646;23.380;2023-03-04T01:28:11;143204.13;;;6.50;100.00
8280;BME280;8335;42.646;23.380;2023-03-04T01:30:38;143211.59;;;6.53;100.00
8280;BME280;8335;42.646;23.380;2023-03-04T01:33:04;143206.66;;;6.51;100.00
8280;BME280;8335;42.646;23.380;2023-03-04T01:35:31;143214.06;;;6.54;100.00
8280;BME280;8335;42.646;23.380;2023-03-04T01:37:58;143217.75;;;6.55;100.00
8280;BME280;8335;42.646;23.380;2023-03-04T01:40:25;143211.59;;;6.53;100.00
8280;BME280;8335;42.646;23.380;2023-03-04T01:42:52;143215.28;;;6.54;100.00
8280;BME280;8335;42.646;23.380;2023-03-04T01:45:20;143200.41;;;6.48;100.00
8280;BME280;8335;42.646;23.380;2023-03-04T01:47:48;143196.72;;;6.47;100.00
8280;BME280;8335;42.646;23.380;2023-03-04T01:50:19;143200.41;;;6.48;100.00
8280;BME280;8335;42.646;23.380;2023-03-04T01:52:46;143134.75;;;6.21;100.00
8280;BME280;8335;42.646;23.380;2023-03-04T01:55:15;143193.00;;;6.45;100.00
8280;BME280;8335;42.646;23.380;2023-03-04T01:57:43;143191.78;;;6.45;100.00
8280;BME280;8335;42.646;23.380;2023-03-04T02:00:17;143189.31;;;6.44;100.00
8280;BME280;8335;42.646;23.380;2023-03-04T02:02:46;143178.13;;;6.39;100.00
8280;BME280;8335;42.646;23.380;2023-03-04T02:05:13;143175.66;;;6.38;100.00
8280;BME280;8335;42.646;23.380;2023-03-04T02:07:41;143174.44;;;6.38;100.00
8280;BME280;8335;42.646;23.380;2023-03-04T02:10:09;143179.38;;;6.40;100.00
8280;BME280;8335;42.646;23.380;2023-03-04T02:12:37;143153.38;;;6.29;100.00
8280;BME280;8335;42.646;23.380;2023-03-04T02:15:05;143160.78;;;6.32;100.00
8280;BME280;8335;42.646;23.380;2023-03-04T02:17:32;143158.31;;;6.31;100.00
8280;BME280;8335;42.646;23.380;2023-03-04T02:20:09;143108.78;;;6.11;100.00
8280;BME280;8335;42.646;23.380;2023-03-04T02:22:44;143124.88;;;6.17;100.00
8280;BME280;8335;42.646;23.380;2023-03-04T02:25:17;143144.69;;;6.25;100.00
8280;BME280;8335;42.646;23.380;2023-03-04T02:27:48;143153.38;;;6.29;100.00
8280;BME280;8335;42.646;23.380;2023-03-04T02:30:20;143160.78;;;6.32;100.00
8280;BME280;8335;42.646;23.380;2023-03-04T02:32:47;143155.84;;;6.30;100.00
8280;BME280;8335;42.646;23.380;2023-03-04T02:35:15;143158.31;;;6.31;100.00
8280;BME280;8335;42.646;23.380;2023-03-04T02:37:43;143139.75;;;6.23;100.00
8280;BME280;8335;42.646;23.380;2023-03-04T02:40:13;143154.63;;;6.29;100.00
8280;BME280;8335;42.646;23.380;2023-03-04T02:42:43;143150.88;;;6.28;100.00
8280;BME280;8335;42.646;23.380;2023-03-04T02:45:37;143153.38;;;6.29;100.00
8280;BME280;8335;42.646;23.380;2023-03-04T02:48:05;143145.91;;;6.26;100.00
8280;BME280;8335;42.646;23.380;2023-03-04T02:50:35;143144.69;;;6.25;100.00
8280;BME280;8335;42.646;23.380;2023-03-04T02:53:04;143128.59;;;6.19;100.00
8280;BME280;8335;42.646;23.380;2023-03-04T02:55:31;143136.03;;;6.22;100.00
8280;BME280;8335;42.646;23.380;2023-03-04T02:57:57;143137.28;;;6.22;100.00
8280;BME280;8335;42.646;23.380;2023-03-04T03:00:24;143138.50;;;6.23;100.00
8280;BME280;8335;42.646;23.380;2023-03-04T03:02:53;143142.22;;;6.24;100.00
8280;BME280;8335;42.646;23.380;2023-03-04T03:05:22;143139.75;;;6.23;100.00
8280;BME280;8335;42.646;23.380;2023-03-04T03:07:49;143145.91;;;6.26;100.00
8280;BME280;8335;42.646;23.380;2023-03-04T03:10:16;143124.88;;;6.17;100.00
8280;BME280;8335;42.646;23.380;2023-03-04T03:12:43;143136.03;;;6.22;100.00
8280;BME280;8335;42.646;23.380;2023-03-04T03:15:10;143133.53;;;6.21;100.00
8280;BME280;8335;42.646;23.380;2023-03-04T03:17:37;143133.53;;;6.21;100.00
8280;BME280;8335;42.646;23.380;2023-03-04T03:20:07;143140.97;;;6.24;100.00
8280;BME280;8335;42.646;23.380;2023-03-04T03:22:33;143139.75;;;6.23;100.00
8280;BME280;8335;42.646;23.380;2023-03-04T03:25:00;143134.75;;;6.21;100.00
8280;BME280;8335;42.646;23.380;2023-03-04T03:27:27;143142.22;;;6.24;100.00
8280;BME280;8335;42.646;23.380;2023-03-04T03:29:54;143139.75;;;6.23;100.00
8280;BME280;8335;42.646;23.380;2023-03-04T03:32:20;143138.50;;;6.23;100.00
8280;BME280;8335;42.646;23.380;2023-03-04T03:34:47;143140.97;;;6.24;100.00
8280;BME280;8335;42.646;23.380;2023-03-04T03:37:15;143144.69;;;6.25;100.00
8280;BME280;8335;42.646;23.380;2023-03-04T03:39:42;143139.75;;;6.23;100.00
8280;BME280;8335;42.646;23.380;2023-03-04T03:42:09;143143.44;;;6.25;100.00
8280;BME280;8335;42.646;23.380;2023-03-04T03:44:36;143136.03;;;6.22;100.00
8280;BME280;8335;42.646;23.380;2023-03-04T03:47:03;143118.69;;;6.15;100.00
8280;BME280;8335;42.646;23.380;2023-03-04T03:49:29;143103.84;;;6.09;100.00
8280;BME280;8335;42.646;23.380;2023-03-04T03:51:56;143079.03;;;5.98;100.00
8280;BME280;8335;42.646;23.380;2023-03-04T03:54:24;143049.31;;;5.86;100.00
8280;BME280;8335;42.646;23.380;2023-03-04T03:56:51;143041.84;;;5.83;100.00
8280;BME280;8335;42.646;23.380;2023-03-04T03:59:18;143029.44;;;5.78;100.00
8280;BME280;8335;42.646;23.380;2023-03-04T04:01:45;143018.34;;;5.73;100.00
8280;BME280;8335;42.646;23.380;2023-03-04T04:04:11;142999.78;;;5.66;100.00
8280;BME280;8335;42.646;23.380;2023-03-04T04:06:38;142978.69;;;5.57;100.00
8280;BME280;8335;42.646;23.380;2023-03-04T04:09:05;142970.06;;;5.53;100.00
8280;BME280;8335;42.646;23.380;2023-03-04T04:11:33;142947.78;;;5.44;100.00
8280;BME280;8335;42.646;23.380;2023-03-04T04:14:00;142913.13;;;5.30;100.00
8280;BME280;8335;42.646;23.380;2023-03-04T04:16:26;142883.41;;;5.18;100.00
8280;BME280;8335;42.646;23.380;2023-03-04T04:18:53;142882.19;;;5.17;100.00
8280;BME280;8335;42.646;23.380;2023-03-04T04:21:20;142867.31;;;5.11;100.00
8280;BME280;8335;42.646;23.380;2023-03-04T04:23:47;142836.38;;;4.98;100.00
8280;BME280;8335;42.646;23.380;2023-03-04T04:26:14;142837.59;;;4.99;100.00
8280;BME280;8335;42.646;23.380;2023-03-04T04:28:42;142831.44;;;4.96;100.00
8280;BME280;8335;42.646;23.380;2023-03-04T04:31:09;142831.44;;;4.96;100.00
8280;BME280;8335;42.646;23.380;2023-03-04T04:33:35;142836.38;;;4.98;100.00
8280;BME280;8335;42.646;23.380;2023-03-04T04:36:03;142837.59;;;4.99;100.00
8280;BME280;8335;42.646;23.380;2023-03-04T04:38:30;142845.06;;;5.02;100.00
8280;BME280;8335;42.646;23.380;2023-03-04T04:40:57;142846.28;;;5.03;100.00
8280;BME280;8335;42.646;23.380;2023-03-04T04:43:25;142841.34;;;5.01;100.00
8280;BME280;8335;42.646;23.380;2023-03-04T04:45:53;142835.13;;;4.98;100.00
8280;BME280;8335;42.646;23.380;2023-03-04T04:48:20;142831.44;;;4.96;100.00
8280;BME280;8335;42.646;23.380;2023-03-04T04:50:52;142822.81;;;4.93;100.00
8280;BME280;8335;42.646;23.380;2023-03-04T04:53:18;142804.19;;;4.85;100.00
8280;BME280;8335;42.646;23.380;2023-03-04T04:55:45;142794.34;;;4.81;100.00
8280;BME280;8335;42.646;23.380;2023-03-04T04:58:12;142785.66;;;4.78;100.00
8280;BME280;8335;42.646;23.380;2023-03-04T05:00:39;142777.00;;;4.74;100.00
8280;BME280;8335;42.646;23.380;2023-03-04T05:03:07;142769.56;;;4.71;100.00
8280;BME280;8335;42.646;23.380;2023-03-04T05:05:34;142770.84;;;4.72;100.00
8280;BME280;8335;42.646;23.380;2023-03-04T05:08:00;142794.34;;;4.81;100.00
8280;BME280;8335;42.646;23.380;2023-03-04T05:10:27;142759.69;;;4.67;100.00
8280;BME280;8335;42.646;23.380;2023-03-04T05:12:54;142790.63;;;4.80;100.00
8280;BME280;8335;42.646;23.380;2023-03-04T05:15:21;142806.72;;;4.86;100.00
8280;BME280;8335;42.646;23.380;2023-03-04T05:17:47;142820.28;;;4.92;100.00
8280;BME280;8335;42.646;23.380;2023-03-04T05:20:16;142833.91;;;4.97;100.00
8280;BME280;8335;42.646;23.380;2023-03-04T05:22:42;142838.84;;;5.00;100.00
8280;BME280;8335;42.646;23.380;2023-03-04T05:25:09;142856.16;;;5.07;100.00
8280;BME280;8335;42.646;23.380;2023-03-04T05:27:36;142858.69;;;5.08;100.00
8280;BME280;8335;42.646;23.380;2023-03-04T05:30:03;142877.25;;;5.15;100.00
8280;BME280;8335;42.646;23.380;2023-03-04T05:32:30;142897.03;;;5.23;100.00
8280;BME280;8335;42.646;23.380;2023-03-04T05:34:57;142911.88;;;5.30;100.00
8280;BME280;8335;42.646;23.380;2023-03-04T05:37:25;142929.22;;;5.37;100.00
8280;BME280;8335;42.646;23.380;2023-03-04T05:39:52;142940.31;;;5.41;100.00
8280;BME280;8335;42.646;23.380;2023-03-04T05:42:18;142942.78;;;5.42;100.00
8280;BME280;8335;42.646;23.380;2023-03-04T05:44:45;142944.03;;;5.43;100.00
8280;BME280;8335;42.646;23.380;2023-03-04T05:47:12;142975.00;;;5.56;100.00
8280;BME280;8335;42.646;23.380;2023-03-04T05:49:38;142987.38;;;5.61;100.00
8280;BME280;8335;42.646;23.380;2023-03-04T05:52:08;143003.47;;;5.67;100.00
8280;BME280;8335;42.646;23.380;2023-03-04T05:54:38;142972.50;;;5.55;100.00
8280;BME280;8335;42.646;23.380;2023-03-04T05:57:04;143004.72;;;5.68;100.00
8280;BME280;8335;42.646;23.380;2023-03-04T05:59:31;143005.94;;;5.68;100.00
8280;BME280;8335;42.646;23.380;2023-03-04T06:01:58;143019.56;;;5.74;100.00
8280;BME280;8335;42.646;23.380;2023-03-04T06:04:24;143013.34;;;5.71;100.00
8280;BME280;8335;42.646;23.380;2023-03-04T06:06:51;143014.63;;;5.72;100.00
8280;BME280;8335;42.646;23.380;2023-03-04T06:09:18;143018.34;;;5.73;100.00
8280;BME280;8335;42.646;23.380;2023-03-04T06:11:47;143029.44;;;5.78;100.00
8280;BME280;8335;42.646;23.380;2023-03-04T06:14:13;143039.38;;;5.82;100.00
8280;BME280;8335;42.646;23.380;2023-03-04T06:16:40;143013.34;;;5.71;100.00
8280;BME280;8335;42.646;23.380;2023-03-04T06:19:07;143064.16;;;5.92;100.00
8280;BME280;8335;42.646;23.380;2023-03-04T06:21:34;143056.72;;;5.89;100.00
8280;BME280;8335;42.646;23.380;2023-03-04T06:24:00;143071.63;;;5.95;100.00
8280;BME280;8335;42.646;23.380;2023-03-04T06:26:27;143090.19;;;6.03;100.00
8280;BME280;8335;42.646;23.380;2023-03-04T06:28:55;143092.66;;;6.04;100.00
8280;BME280;8335;42.646;23.380;2023-03-04T06:31:22;143066.69;;;5.93;100.00
8280;BME280;8335;42.646;23.380;2023-03-04T06:33:49;143033.22;;;5.79;100.00
8280;BME280;8335;42.646;23.380;2023-03-04T06:36:16;143031.97;;;5.79;100.00
8280;BME280;8335;42.646;23.380;2023-03-04T06:38:42;143038.16;;;5.82;100.00
8280;BME280;8335;42.646;23.380;2023-03-04T06:41:10;143056.72;;;5.89;100.00
8280;BME280;8335;42.646;23.380;2023-03-04T06:43:38;143055.47;;;5.89;100.00
8280;BME280;8335;42.646;23.380;2023-03-04T06:46:07;143012.13;;;5.71;100.00
8280;BME280;8335;42.646;23.380;2023-03-04T06:48:34;143014.63;;;5.72;100.00
8280;BME280;8335;42.646;23.380;2023-03-04T06:51:05;143002.25;;;5.67;100.00
8280;BME280;8335;42.646;23.380;2023-03-04T06:53:32;143015.88;;;5.72;100.00
8280;BME280;8335;42.646;23.380;2023-03-04T06:55:59;143046.78;;;5.85;100.00
8280;BME280;8335;42.646;23.380;2023-03-04T06:58:25;143062.94;;;5.92;100.00
8280;BME280;8335;42.646;23.380;2023-03-04T07:00:52;143055.47;;;5.89;100.00
8280;BME280;8335;42.646;23.380;2023-03-04T07:03:21;143057.94;;;5.90;100.00
8280;BME280;8335;42.646;23.380;2023-03-04T07:05:48;143074.09;;;5.96;100.00
8280;BME280;8335;42.646;23.380;2023-03-04T07:08:14;143087.72;;;6.02;100.00
8280;BME280;8335;42.646;23.380;2023-03-04T07:10:41;143100.06;;;6.07;100.00
8280;BME280;8335;42.646;23.380;2023-03-04T07:13:08;143087.72;;;6.02;100.00
8280;BME280;8335;42.646;23.380;2023-03-04T07:15:34;143092.66;;;6.04;100.00
8280;BME280;8335;42.646;23.380;2023-03-04T07:18:02;143095.13;;;6.05;100.00
8280;BME280;8335;42.646;23.380;2023-03-04T07:20:30;143102.59;;;6.08;100.00
8280;BME280;8335;42.646;23.380;2023-03-04T07:22:57;143108.78;;;6.11;100.00
8280;BME280;8335;42.646;23.380;2023-03-04T07:25:24;143117.41;;;6.14;100.00
8280;BME280;8335;42.646;23.380;2023-03-04T07:27:51;143121.16;;;6.16;100.00
8280;BME280;8335;42.646;23.380;2023-03-04T07:30:17;143129.81;;;6.19;100.00
8280;BME280;8335;42.646;23.380;2023-03-04T07:32:44;143136.03;;;6.22;100.00
8280;BME280;8335;42.646;23.380;2023-03-04T07:35:11;143149.63;;;6.27;100.00
8280;BME280;8335;42.646;23.380;2023-03-04T07:37:39;143158.31;;;6.31;100.00
8280;BME280;8335;42.646;23.380;2023-03-04T07:40:07;143170.72;;;6.36;100.00
8280;BME280;8335;42.646;23.380;2023-03-04T07:42:34;143179.38;;;6.40;100.00
8280;BME280;8335;42.646;23.380;2023-03-04T07:45:01;143186.78;;;6.43;100.00
8280;BME280;8335;42.646;23.380;2023-03-04T07:47:29;143209.13;;;6.52;100.00
8280;BME280;8335;42.646;23.380;2023-03-04T07:49:56;143226.47;;;6.59;100.00
8280;BME280;8335;42.646;23.380;2023-03-04T07:52:23;143231.41;;;6.61;100.00
8280;BME280;8335;42.646;23.380;2023-03-04T07:54:51;143233.88;;;6.62;100.00
8280;BME280;8335;42.646;23.380;2023-03-04T07:57:18;143251.22;;;6.69;100.00
8280;BME280;8335;42.646;23.380;2023-03-04T07:59:44;143278.50;;;6.80;100.00
8280;BME280;8335;42.646;23.380;2023-03-04T08:02:11;143306.97;;;6.92;100.00
8280;BME280;8335;42.646;23.380;2023-03-04T08:04:39;143336.75;;;7.04;100.00
8280;BME280;8335;42.646;23.380;2023-03-04T08:07:06;143342.91;;;7.07;100.00
8280;BME280;8335;42.646;23.380;2023-03-04T08:09:33;143365.28;;;7.16;100.00
8280;BME280;8335;42.646;23.380;2023-03-04T08:12:01;143380.16;;;7.22;100.00
8280;BME280;8335;42.646;23.380;2023-03-04T08:14:28;143391.28;;;7.27;100.00
8280;BME280;8335;42.646;23.380;2023-03-04T08:16:54;143408.63;;;7.34;100.00
8280;BME280;8335;42.646;23.380;2023-03-04T08:19:21;143430.97;;;7.43;100.00
8280;BME280;8335;42.646;23.380;2023-03-04T08:21:48;143444.59;;;7.49;100.00
8280;BME280;8335;42.646;23.380;2023-03-04T08:24:15;143476.84;;;7.62;100.00
8280;BME280;8335;42.646;23.380;2023-03-04T08:26:43;143483.06;;;7.64;100.00
8280;BME280;8335;42.646;23.380;2023-03-04T08:29:13;143526.44;;;7.82;100.00
8280;BME280;8335;42.646;23.380;2023-03-04T08:31:41;143547.53;;;7.91;100.00
8280;BME280;8335;42.646;23.380;2023-03-04T08:34:11;143532.63;;;7.85;99.93
8280;BME280;8335;42.646;23.380;2023-03-04T08:36:39;143552.47;;;7.93;99.94
8280;BME280;8335;42.646;23.380;2023-03-04T08:39:07;143588.50;;;8.08;98.98
8280;BME280;8335;42.646;23.380;2023-03-04T08:41:34;143626.94;;;8.23;98.83
8280;BME280;8335;42.646;23.380;2023-03-04T08:44:01;143681.56;;;8.46;98.26
8280;BME280;8335;42.646;23.380;2023-03-04T08:46:30;143701.41;;;8.54;96.84
8280;BME280;8335;42.646;23.380;2023-03-04T08:48:57;143705.13;;;8.55;95.18
8280;BME280;8335;42.646;23.380;2023-03-04T08:51:23;143718.81;;;8.61;95.45
8280;BME280;8335;42.646;23.380;2023-03-04T08:53:50;143784.59;;;8.88;94.25
8280;BME280;8335;42.646;23.380;2023-03-04T08:56:17;143826.78;;;9.05;93.07
8280;BME280;8335;42.646;23.380;2023-03-04T08:58:44;143862.78;;;9.20;92.05
8280;BME280;8335;42.646;23.380;2023-03-04T09:01:12;143887.66;;;9.30;91.07
8280;BME280;8335;42.646;23.380;2023-03-04T09:03:41;143923.66;;;9.45;90.14
8280;BME280;8335;42.646;23.380;2023-03-04T09:06:11;143780.88;;;8.87;90.79
8280;BME280;8335;42.646;23.380;2023-03-04T09:08:39;143854.13;;;9.17;90.93
8280;BME280;8335;42.646;23.380;2023-03-04T09:11:06;143893.84;;;9.33;91.04
8280;BME280;8335;42.646;23.380;2023-03-04T09:13:33;143885.19;;;9.29;92.85
8280;BME280;8335;42.646;23.380;2023-03-04T09:16:00;143885.19;;;9.29;92.32
8280;BME280;8335;42.646;23.380;2023-03-04T09:18:28;143787.06;;;8.89;91.50
8280;BME280;8335;42.646;23.380;2023-03-04T09:20:56;143805.69;;;8.97;92.55
8280;BME280;8335;42.646;23.380;2023-03-04T09:23:22;143764.75;;;8.80;93.19
8280;BME280;8335;42.646;23.380;2023-03-04T09:25:49;143739.88;;;8.70;93.78
8280;BME280;8335;42.646;23.380;2023-03-04T09:28:18;143769.69;;;8.82;93.64
8280;BME280;8335;42.646;23.380;2023-03-04T09:30:45;143773.41;;;8.83;94.12
8280;BME280;8335;42.646;23.380;2023-03-04T09:33:12;143793.25;;;8.92;92.79
8280;BME280;8335;42.646;23.380;2023-03-04T09:35:39;143769.69;;;8.82;92.08
8280;BME280;8335;42.646;23.380;2023-03-04T09:38:07;143774.63;;;8.84;92.65
8280;BME280;8335;42.646;23.380;2023-03-04T09:40:38;143794.50;;;8.92;92.35
8280;BME280;8335;42.646;23.380;2023-03-04T09:43:11;143795.75;;;8.93;91.80
8280;BME280;8335;42.646;23.380;2023-03-04T09:45:46;143823.06;;;9.04;91.21
8280;BME280;8335;42.646;23.380;2023-03-04T09:48:16;143883.94;;;9.29;89.94
8280;BME280;8335;42.646;23.380;2023-03-04T09:50:55;143948.47;;;9.55;89.55
8280;BME280;8335;42.646;23.380;2023-03-04T09:53:34;143993.22;;;9.74;88.46
8280;BME280;8335;42.646;23.380;2023-03-04T09:56:05;143960.91;;;9.60;87.46
8280;BME280;8335;42.646;23.380;2023-03-04T09:58:41;143996.94;;;9.75;87.65
8280;BME280;8335;42.646;23.380;2023-03-04T10:01:14;144025.53;;;9.87;86.56
8280;BME280;8335;42.646;23.380;2023-03-04T10:03:45;143999.41;;;9.76;87.49
8280;BME280;8335;42.646;23.380;2023-03-04T10:06:17;143944.75;;;9.54;87.55
8280;BME280;8335;42.646;23.380;2023-03-04T10:08:50;143936.09;;;9.50;87.88
8280;BME280;8335;42.646;23.380;2023-03-04T10:11:23;143900.03;;;9.35;87.75
8280;BME280;8335;42.646;23.380;2023-03-04T10:13:56;143919.94;;;9.44;87.25
8280;BME280;8335;42.646;23.380;2023-03-04T10:16:29;143923.66;;;9.45;87.22
8280;BME280;8335;42.646;23.380;2023-03-04T10:19:00;143972.13;;;9.65;86.65
8280;BME280;8335;42.646;23.380;2023-03-04T10:21:31;144004.38;;;9.78;86.66
8280;BME280;8335;42.646;23.380;2023-03-04T10:24:10;144061.56;;;10.02;86.24
8280;BME280;8335;42.646;23.380;2023-03-04T10:26:39;144085.16;;;10.11;85.18
8280;BME280;8335;42.646;23.380;2023-03-04T10:29:08;144072.72;;;10.06;83.85
8280;BME280;8335;42.646;23.380;2023-03-04T10:31:39;144066.50;;;10.04;83.12
8280;BME280;8335;42.646;23.380;2023-03-04T10:34:09;144062.78;;;10.02;83.97
8280;BME280;8335;42.646;23.380;2023-03-04T10:36:55;144064.03;;;10.03;83.69
8280;BME280;8335;42.646;23.380;2023-03-04T10:39:27;144086.38;;;10.12;83.29
8280;BME280;8335;42.646;23.380;2023-03-04T10:41:57;144111.28;;;10.22;83.27
8280;BME280;8335;42.646;23.380;2023-03-04T10:44:25;144148.59;;;10.37;82.72
8280;BME280;8335;42.646;23.380;2023-03-04T10:46:54;144167.25;;;10.45;83.96
8280;BME280;8335;42.646;23.380;2023-03-04T10:49:22;144158.50;;;10.41;84.03
8280;BME280;8335;42.646;23.380;2023-03-04T10:51:52;144188.34;;;10.54;83.52
8280;BME280;8335;42.646;23.380;2023-03-04T10:54:26;144180.91;;;10.51;83.40
8280;BME280;8335;42.646;23.380;2023-03-04T10:56:57;144144.88;;;10.36;83.27
8280;BME280;8335;42.646;23.380;2023-03-04T10:59:30;144083.91;;;10.11;83.69
8280;BME280;8335;42.646;23.380;2023-03-04T11:01:59;144064.03;;;10.03;84.93
8280;BME280;8335;42.646;23.380;2023-03-04T11:04:31;144018.06;;;9.84;85.79
8280;BME280;8335;42.646;23.380;2023-03-04T11:06:58;144034.19;;;9.90;85.53
8280;BME280;8335;42.646;23.380;2023-03-04T11:09:28;144072.72;;;10.06;86.02
8280;BME280;8335;42.646;23.380;2023-03-04T11:11:58;144117.53;;;10.25;84.51
8280;BME280;8335;42.646;23.380;2023-03-04T11:14:30;144197.03;;;10.57;82.73
8280;BME280;8335;42.646;23.380;2023-03-04T11:17:02;144234.38;;;10.72;82.74
8280;BME280;8335;42.646;23.380;2023-03-04T11:19:35;144322.66;;;11.09;81.02
8280;BME280;8335;42.646;23.380;2023-03-04T11:22:04;144449.53;;;11.61;80.40
8280;BME280;8335;42.646;23.380;2023-03-04T11:24:34;144453.25;;;11.62;77.43
8280;BME280;8335;42.646;23.380;2023-03-04T11:27:04;144377.38;;;11.31;77.72
8280;BME280;8335;42.646;23.380;2023-03-04T11:29:35;144358.72;;;11.23;78.94
8280;BME280;8335;42.646;23.380;2023-03-04T11:32:08;144318.88;;;11.07;80.04
8280;BME280;8335;42.646;23.380;2023-03-04T11:34:39;144311.44;;;11.04;80.52
8280;BME280;8335;42.646;23.380;2023-03-04T11:37:12;144323.91;;;11.09;79.12
8280;BME280;8335;42.646;23.380;2023-03-04T11:39:46;144315.16;;;11.06;80.04
8280;BME280;8335;42.646;23.380;2023-03-04T11:42:24;144330.09;;;11.12;78.90
8280;BME280;8335;42.646;23.380;2023-03-04T11:44:56;144351.22;;;11.20;77.96
8280;BME280;8335;42.646;23.380;2023-03-04T11:47:40;144408.47;;;11.44;77.96
8280;BME280;8335;42.646;23.380;2023-03-04T11:50:25;144483.13;;;11.74;77.14
8280;BME280;8335;42.646;23.380;2023-03-04T11:55:50;144484.34;;;11.75;76.10
8280;BME280;8335;42.646;23.380;2023-03-04T11:58:37;144450.75;;;11.61;75.96
8280;BME280;8335;42.646;23.380;2023-03-04T12:01:08;144434.59;;;11.54;75.64
8280;BME280;8335;42.646;23.380;2023-03-04T12:03:49;144453.25;;;11.62;75.86
8280;BME280;8335;42.646;23.380;2023-03-04T12:06:23;144428.38;;;11.52;75.67
8280;BME280;8335;42.646;23.380;2023-03-04T12:09:02;144448.28;;;11.60;75.10
8280;BME280;8335;42.646;23.380;2023-03-04T12:11:40;144479.41;;;11.73;75.37
8280;BME280;8335;42.646;23.380;2023-03-04T12:14:25;144503.06;;;11.82;76.27
8280;BME280;8335;42.646;23.380;2023-03-04T12:17:28;144496.81;;;11.80;75.81
8280;BME280;8335;42.646;23.380;2023-03-04T12:23:02;144439.53;;;11.56;75.47
8280;BME280;8335;42.646;23.380;2023-03-04T12:25:41;144425.91;;;11.51;75.74
8280;BME280;8335;42.646;23.380;2023-03-04T12:28:36;144379.84;;;11.32;76.26
8280;BME280;8335;42.646;23.380;2023-03-04T12:31:32;144355.00;;;11.22;76.18
8280;BME280;8335;42.646;23.380;2023-03-04T12:34:24;144341.31;;;11.16;77.05
8280;BME280;8335;42.646;23.380;2023-03-04T12:37:07;144310.19;;;11.03;77.09
8280;BME280;8335;42.646;23.380;2023-03-04T12:39:40;144245.53;;;10.77;78.53
8280;BME280;8335;42.646;23.380;2023-03-04T12:42:18;144231.84;;;10.71;79.50
8280;BME280;8335;42.646;23.380;2023-03-04T12:44:55;144213.19;;;10.64;80.04
8280;BME280;8335;42.646;23.380;2023-03-04T12:47:31;144189.59;;;10.54;80.17
8280;BME280;8335;42.646;23.380;2023-03-04T12:50:17;144184.66;;;10.52;80.42
8280;BME280;8335;42.646;23.380;2023-03-04T12:52:55;144173.44;;;10.47;80.37
8280;BME280;8335;42.646;23.380;2023-03-04T12:55:34;144175.91;;;10.48;80.60
8280;BME280;8335;42.646;23.380;2023-03-04T12:58:02;144133.66;;;10.31;81.50
8280;BME280;8335;42.646;23.380;2023-03-04T13:00:42;144097.59;;;10.16;82.45
8280;BME280;8335;42.646;23.380;2023-03-04T13:03:14;144078.97;;;10.09;82.90
8280;BME280;8335;42.646;23.380;2023-03-04T13:05:55;144037.91;;;9.92;82.98
8280;BME280;8335;42.646;23.380;2023-03-04T13:08:32;144073.94;;;10.07;83.01
8280;BME280;8335;42.646;23.380;2023-03-04T13:11:02;144082.66;;;10.10;82.80
8280;BME280;8335;42.646;23.380;2023-03-04T13:13:35;144091.34;;;10.14;82.37
8280;BME280;8335;42.646;23.380;2023-03-04T13:16:05;144070.22;;;10.05;82.61
8280;BME280;8335;42.646;23.380;2023-03-04T13:18:34;144034.19;;;9.90;83.26
8280;BME280;8335;42.646;23.380;2023-03-04T13:21:06;144054.06;;;9.99;83.24